Hauptseite
METAR-TAF:

METAR-TAF

Flughäfen :

Flughafen Teneriffa Nord

Teneriffa, Spanien

Breite: 28-28N, Länge: 016-19W, Höhe: 632 m

Beobachtung

Neuester Wetterbericht von vor 39 Minuten, um 15:30 UTC
Wind 3 kt aus unterschiedlichen Richtungen
Temperatur 28°C
Luftfeuchtigkeit 25%
Luftdruck 1019 hPa
Sichtweite 10 km oder mehr
keine Wolken unter 1500 m und keine Kumulonimbus oder Gewitterwolken

METAR: GCXO 161530Z VRB03KT CAVOK 28/06 Q1019 NOSIG

Zeit: 17:09 (16:09 UTC)

Prognose

Neuester Wetterbericht von vor 2 Stunden und 9 Minuten, um 14:00 UTC
Gültige Prognose vom 16 um 15 UTC bis 17 um 15 UTC
Wind 6 kt aus Ost/Südost
Sichtweite 10 km oder mehr
keine Wolken unter 1500 m und keine Kumulonimbus oder Gewitterwolken

TAF: GCXO 161400Z 1615/1715 11006KT CAVOK TX27/1615Z TN16/1706Z

Wetterbeobachtungen und Prognosen von mehr als 4000 Flughäfen (METAR und TAF Bericht).

Die verfügbaren Stationen werden durch gelbe und rote Markierungen auf der Karte dargestellt.

Führen Sie die Maus auf sie, um den Namen der Station zu sehen.

Darauf klicken, um die Beobachtung von Wetterbeobachtungen und Prognosen zu sehen.

Um die Karte zu ändern : klicken Sie auf den grünen Tasten mit einem schwarzen Kreuz Zum Vergrößern, auf den grünen Button mit einem Gedankenstrich zu verkleinern, oder auf die grünen Pfeile für benachbarte Karten.


METAR-TAF: